sensor_id;sensor_type;location;lat;lon;timestamp;temperature;humidity
12682;DHT22;6405;59.208;18.216;2022-11-20T00:01:20;0.20;99.90
12682;DHT22;6405;59.208;18.216;2022-11-20T00:03:47;0.20;99.90
12682;DHT22;6405;59.208;18.216;2022-11-20T00:06:17;0.20;99.90
12682;DHT22;6405;59.208;18.216;2022-11-20T00:08:46;0.20;99.90
12682;DHT22;6405;59.208;18.216;2022-11-20T00:11:21;0.20;99.90
12682;DHT22;6405;59.208;18.216;2022-11-20T00:13:51;0.20;99.90
12682;DHT22;6405;59.208;18.216;2022-11-20T00:16:21;0.20;99.90
12682;DHT22;6405;59.208;18.216;2022-11-20T00:18:48;0.20;99.90
12682;DHT22;6405;59.208;18.216;2022-11-20T00:21:18;0.20;99.90
12682;DHT22;6405;59.208;18.216;2022-11-20T00:23:44;0.20;99.90
12682;DHT22;6405;59.208;18.216;2022-11-20T00:26:13;0.20;99.90
12682;DHT22;6405;59.208;18.216;2022-11-20T00:28:39;0.20;99.90
12682;DHT22;6405;59.208;18.216;2022-11-20T00:31:15;0.20;99.90
12682;DHT22;6405;59.208;18.216;2022-11-20T00:33:42;0.20;99.90
12682;DHT22;6405;59.208;18.216;2022-11-20T00:36:14;0.20;99.90
12682;DHT22;6405;59.208;18.216;2022-11-20T00:38:41;0.20;99.90
12682;DHT22;6405;59.208;18.216;2022-11-20T00:41:10;0.20;99.90
12682;DHT22;6405;59.208;18.216;2022-11-20T00:43:36;0.20;99.90
12682;DHT22;6405;59.208;18.216;2022-11-20T00:46:15;0.20;99.90
12682;DHT22;6405;59.208;18.216;2022-11-20T00:48:43;0.20;99.90
12682;DHT22;6405;59.208;18.216;2022-11-20T00:51:11;0.30;99.90
12682;DHT22;6405;59.208;18.216;2022-11-20T00:53:38;0.30;99.90
12682;DHT22;6405;59.208;18.216;2022-11-20T00:56:07;0.30;99.90
12682;DHT22;6405;59.208;18.216;2022-11-20T00:58:35;0.30;99.90
12682;DHT22;6405;59.208;18.216;2022-11-20T01:01:07;0.30;99.90
12682;DHT22;6405;59.208;18.216;2022-11-20T01:03:36;0.30;99.90
12682;DHT22;6405;59.208;18.216;2022-11-20T01:06:05;0.30;99.90
12682;DHT22;6405;59.208;18.216;2022-11-20T01:08:32;0.30;99.90
12682;DHT22;6405;59.208;18.216;2022-11-20T01:11:13;0.30;99.90
12682;DHT22;6405;59.208;18.216;2022-11-20T01:13:41;0.30;99.90
12682;DHT22;6405;59.208;18.216;2022-11-20T01:16:13;0.30;99.90
12682;DHT22;6405;59.208;18.216;2022-11-20T01:18:42;0.30;99.90
12682;DHT22;6405;59.208;18.216;2022-11-20T01:21:11;0.30;99.90
12682;DHT22;6405;59.208;18.216;2022-11-20T01:23:39;0.30;99.90
12682;DHT22;6405;59.208;18.216;2022-11-20T01:26:08;0.30;99.90
12682;DHT22;6405;59.208;18.216;2022-11-20T01:28:35;0.30;99.90
12682;DHT22;6405;59.208;18.216;2022-11-20T01:31:11;0.30;99.90
12682;DHT22;6405;59.208;18.216;2022-11-20T01:33:38;0.40;99.90
12682;DHT22;6405;59.208;18.216;2022-11-20T01:36:06;0.40;99.90
12682;DHT22;6405;59.208;18.216;2022-11-20T01:38:34;0.40;99.90
12682;DHT22;6405;59.208;18.216;2022-11-20T01:41:01;0.40;99.90
12682;DHT22;6405;59.208;18.216;2022-11-20T01:43:28;0.40;99.90
12682;DHT22;6405;59.208;18.216;2022-11-20T01:48:44;0.40;99.90
12682;DHT22;6405;59.208;18.216;2022-11-20T01:51:21;0.40;99.90
12682;DHT22;6405;59.208;18.216;2022-11-20T01:53:51;0.40;99.90
12682;DHT22;6405;59.208;18.216;2022-11-20T01:56:18;0.40;99.90
12682;DHT22;6405;59.208;18.216;2022-11-20T01:58:52;0.40;99.90
12682;DHT22;6405;59.208;18.216;2022-11-20T02:01:21;0.40;99.90
12682;DHT22;6405;59.208;18.216;2022-11-20T02:03:47;0.40;99.90
12682;DHT22;6405;59.208;18.216;2022-11-20T02:06:22;0.40;99.90
12682;DHT22;6405;59.208;18.216;2022-11-20T02:08:49;0.50;99.90
12682;DHT22;6405;59.208;18.216;2022-11-20T02:11:16;0.40;99.90
12682;DHT22;6405;59.208;18.216;2022-11-20T02:13:43;0.30;99.90
12682;DHT22;6405;59.208;18.216;2022-11-20T02:16:14;0.40;99.90
12682;DHT22;6405;59.208;18.216;2022-11-20T02:18:43;0.40;99.90
12682;DHT22;6405;59.208;18.216;2022-11-20T02:24:00;0.40;99.90
12682;DHT22;6405;59.208;18.216;2022-11-20T02:26:30;0.40;99.90
12682;DHT22;6405;59.208;18.216;2022-11-20T02:28:57;0.40;99.90
12682;DHT22;6405;59.208;18.216;2022-11-20T02:31:26;0.40;99.90
12682;DHT22;6405;59.208;18.216;2022-11-20T02:33:57;0.40;99.90
12682;DHT22;6405;59.208;18.216;2022-11-20T02:36:26;0.40;99.90
12682;DHT22;6405;59.208;18.216;2022-11-20T02:38:54;0.40;99.90
12682;DHT22;6405;59.208;18.216;2022-11-20T02:41:20;0.40;99.90
12682;DHT22;6405;59.208;18.216;2022-11-20T02:43:45;0.40;99.90
12682;DHT22;6405;59.208;18.216;2022-11-20T02:46:11;0.40;99.90
12682;DHT22;6405;59.208;18.216;2022-11-20T02:48:37;0.40;99.90
12682;DHT22;6405;59.208;18.216;2022-11-20T02:51:02;0.40;99.90
12682;DHT22;6405;59.208;18.216;2022-11-20T02:53:28;0.40;99.90
12682;DHT22;6405;59.208;18.216;2022-11-20T02:55:55;0.50;99.90
12682;DHT22;6405;59.208;18.216;2022-11-20T02:58:22;0.40;99.90
12682;DHT22;6405;59.208;18.216;2022-11-20T03:00:52;0.40;99.90
12682;DHT22;6405;59.208;18.216;2022-11-20T03:03:18;0.40;99.90
12682;DHT22;6405;59.208;18.216;2022-11-20T03:05:45;0.40;99.90
12682;DHT22;6405;59.208;18.216;2022-11-20T03:08:11;0.40;99.90
12682;DHT22;6405;59.208;18.216;2022-11-20T03:10:37;0.40;99.90
12682;DHT22;6405;59.208;18.216;2022-11-20T03:13:03;0.40;99.90
12682;DHT22;6405;59.208;18.216;2022-11-20T03:15:29;0.40;99.90
12682;DHT22;6405;59.208;18.216;2022-11-20T03:17:55;0.40;99.90
12682;DHT22;6405;59.208;18.216;2022-11-20T03:20:21;0.40;99.90
12682;DHT22;6405;59.208;18.216;2022-11-20T03:22:49;0.40;99.90
12682;DHT22;6405;59.208;18.216;2022-11-20T03:25:14;0.40;99.90
12682;DHT22;6405;59.208;18.216;2022-11-20T03:27:42;0.40;99.90
12682;DHT22;6405;59.208;18.216;2022-11-20T03:30:09;0.40;99.90
12682;DHT22;6405;59.208;18.216;2022-11-20T03:32:34;0.40;99.90
12682;DHT22;6405;59.208;18.216;2022-11-20T03:35:01;0.40;99.90
12682;DHT22;6405;59.208;18.216;2022-11-20T03:37:28;0.40;99.90
12682;DHT22;6405;59.208;18.216;2022-11-20T03:39:54;0.40;99.90
12682;DHT22;6405;59.208;18.216;2022-11-20T03:42:20;0.40;99.90
12682;DHT22;6405;59.208;18.216;2022-11-20T03:45:06;0.40;99.90
12682;DHT22;6405;59.208;18.216;2022-11-20T03:47:31;0.40;99.90
12682;DHT22;6405;59.208;18.216;2022-11-20T03:49:57;0.40;99.90
12682;DHT22;6405;59.208;18.216;2022-11-20T03:52:23;0.40;99.90
12682;DHT22;6405;59.208;18.216;2022-11-20T03:54:50;0.50;99.90
12682;DHT22;6405;59.208;18.216;2022-11-20T03:57:16;0.40;99.90
12682;DHT22;6405;59.208;18.216;2022-11-20T03:59:43;0.40;99.90
12682;DHT22;6405;59.208;18.216;2022-11-20T04:02:10;0.40;99.90
12682;DHT22;6405;59.208;18.216;2022-11-20T04:04:36;0.40;99.90
12682;DHT22;6405;59.208;18.216;2022-11-20T04:07:03;0.40;99.90
12682;DHT22;6405;59.208;18.216;2022-11-20T04:09:30;0.40;99.90
12682;DHT22;6405;59.208;18.216;2022-11-20T04:11:56;0.40;99.90
12682;DHT22;6405;59.208;18.216;2022-11-20T04:14:22;0.40;99.90
12682;DHT22;6405;59.208;18.216;2022-11-20T04:16:47;0.40;99.90
12682;DHT22;6405;59.208;18.216;2022-11-20T04:19:15;0.40;99.90
12682;DHT22;6405;59.208;18.216;2022-11-20T04:21:42;0.40;99.90
12682;DHT22;6405;59.208;18.216;2022-11-20T04:24:09;0.40;99.90
12682;DHT22;6405;59.208;18.216;2022-11-20T04:26:37;0.40;99.90
12682;DHT22;6405;59.208;18.216;2022-11-20T04:29:04;0.40;99.90
12682;DHT22;6405;59.208;18.216;2022-11-20T04:31:32;0.40;99.90
12682;DHT22;6405;59.208;18.216;2022-11-20T04:34:01;0.40;99.90
12682;DHT22;6405;59.208;18.216;2022-11-20T04:36:29;0.40;99.90
12682;DHT22;6405;59.208;18.216;2022-11-20T04:38:59;0.40;99.90
12682;DHT22;6405;59.208;18.216;2022-11-20T04:41:28;0.40;99.90
12682;DHT22;6405;59.208;18.216;2022-11-20T04:43:57;0.40;99.90
12682;DHT22;6405;59.208;18.216;2022-11-20T04:46:27;0.40;99.90
12682;DHT22;6405;59.208;18.216;2022-11-20T04:48:53;0.40;99.90
12682;DHT22;6405;59.208;18.216;2022-11-20T04:51:21;0.40;99.90
12682;DHT22;6405;59.208;18.216;2022-11-20T04:53:47;0.40;99.90
12682;DHT22;6405;59.208;18.216;2022-11-20T04:56:14;0.40;99.90
12682;DHT22;6405;59.208;18.216;2022-11-20T04:58:41;0.40;99.90
12682;DHT22;6405;59.208;18.216;2022-11-20T05:01:19;0.40;99.90
12682;DHT22;6405;59.208;18.216;2022-11-20T05:03:45;0.50;99.90
12682;DHT22;6405;59.208;18.216;2022-11-20T05:06:14;0.50;99.90
12682;DHT22;6405;59.208;18.216;2022-11-20T05:08:40;0.40;99.90
12682;DHT22;6405;59.208;18.216;2022-11-20T05:11:09;0.50;99.90
12682;DHT22;6405;59.208;18.216;2022-11-20T05:13:37;0.50;99.90
12682;DHT22;6405;59.208;18.216;2022-11-20T05:16:04;0.50;99.90
12682;DHT22;6405;59.208;18.216;2022-11-20T05:18:31;0.50;99.90
12682;DHT22;6405;59.208;18.216;2022-11-20T05:20:58;0.40;99.90
12682;DHT22;6405;59.208;18.216;2022-11-20T05:23:27;0.40;99.90
12682;DHT22;6405;59.208;18.216;2022-11-20T05:25:55;0.40;99.90
12682;DHT22;6405;59.208;18.216;2022-11-20T05:28:22;0.40;99.90
12682;DHT22;6405;59.208;18.216;2022-11-20T05:30:48;0.40;99.90
12682;DHT22;6405;59.208;18.216;2022-11-20T05:33:14;0.40;99.90
12682;DHT22;6405;59.208;18.216;2022-11-20T05:35:40;0.60;99.90
12682;DHT22;6405;59.208;18.216;2022-11-20T05:38:06;0.50;99.90
12682;DHT22;6405;59.208;18.216;2022-11-20T05:40:33;0.40;99.90
12682;DHT22;6405;59.208;18.216;2022-11-20T05:43:00;0.40;99.90
12682;DHT22;6405;59.208;18.216;2022-11-20T05:45:25;0.40;99.90
12682;DHT22;6405;59.208;18.216;2022-11-20T05:47:52;0.40;99.90
12682;DHT22;6405;59.208;18.216;2022-11-20T05:50:18;0.40;99.90
12682;DHT22;6405;59.208;18.216;2022-11-20T05:52:43;0.40;99.90
12682;DHT22;6405;59.208;18.216;2022-11-20T05:55:10;0.40;99.90
12682;DHT22;6405;59.208;18.216;2022-11-20T05:57:38;0.40;99.90
12682;DHT22;6405;59.208;18.216;2022-11-20T06:00:04;0.40;99.90
12682;DHT22;6405;59.208;18.216;2022-11-20T06:02:30;0.40;99.90
12682;DHT22;6405;59.208;18.216;2022-11-20T06:04:56;0.40;99.90
12682;DHT22;6405;59.208;18.216;2022-11-20T06:07:21;0.40;99.90
12682;DHT22;6405;59.208;18.216;2022-11-20T06:09:48;0.40;99.90
12682;DHT22;6405;59.208;18.216;2022-11-20T06:12:14;0.40;99.90
12682;DHT22;6405;59.208;18.216;2022-11-20T06:14:40;0.40;99.90
12682;DHT22;6405;59.208;18.216;2022-11-20T06:17:05;0.40;99.90
12682;DHT22;6405;59.208;18.216;2022-11-20T06:19:32;0.40;99.90
12682;DHT22;6405;59.208;18.216;2022-11-20T06:21:58;0.40;99.90
12682;DHT22;6405;59.208;18.216;2022-11-20T06:24:23;0.40;99.90
12682;DHT22;6405;59.208;18.216;2022-11-20T06:26:51;0.40;99.90
12682;DHT22;6405;59.208;18.216;2022-11-20T06:29:17;0.40;99.90
12682;DHT22;6405;59.208;18.216;2022-11-20T06:31:44;0.40;99.90
12682;DHT22;6405;59.208;18.216;2022-11-20T06:34:11;0.40;99.90
12682;DHT22;6405;59.208;18.216;2022-11-20T06:36:37;0.40;99.90
12682;DHT22;6405;59.208;18.216;2022-11-20T06:39:04;0.40;99.90
12682;DHT22;6405;59.208;18.216;2022-11-20T06:41:31;0.40;99.90
12682;DHT22;6405;59.208;18.216;2022-11-20T06:43:59;0.40;99.90
12682;DHT22;6405;59.208;18.216;2022-11-20T06:46:26;0.40;99.90
12682;DHT22;6405;59.208;18.216;2022-11-20T06:48:52;0.40;99.90
12682;DHT22;6405;59.208;18.216;2022-11-20T06:51:20;0.40;99.90
12682;DHT22;6405;59.208;18.216;2022-11-20T06:53:46;0.40;99.90
12682;DHT22;6405;59.208;18.216;2022-11-20T06:56:12;0.40;99.90
12682;DHT22;6405;59.208;18.216;2022-11-20T06:58:38;0.40;99.90
12682;DHT22;6405;59.208;18.216;2022-11-20T07:01:14;0.40;99.90
12682;DHT22;6405;59.208;18.216;2022-11-20T07:03:43;0.40;99.90
12682;DHT22;6405;59.208;18.216;2022-11-20T07:06:09;0.40;99.90
12682;DHT22;6405;59.208;18.216;2022-11-20T07:08:36;0.40;99.90
12682;DHT22;6405;59.208;18.216;2022-11-20T07:11:05;0.40;99.90
12682;DHT22;6405;59.208;18.216;2022-11-20T07:13:32;0.40;99.90
12682;DHT22;6405;59.208;18.216;2022-11-20T07:16:04;0.50;99.90
12682;DHT22;6405;59.208;18.216;2022-11-20T07:18:32;0.50;99.90
12682;DHT22;6405;59.208;18.216;2022-11-20T07:21:05;0.50;99.90
12682;DHT22;6405;59.208;18.216;2022-11-20T07:23:34;0.60;99.90
12682;DHT22;6405;59.208;18.216;2022-11-20T07:26:09;0.60;99.90
12682;DHT22;6405;59.208;18.216;2022-11-20T07:28:37;0.60;99.90
12682;DHT22;6405;59.208;18.216;2022-11-20T07:31:04;0.60;99.90
12682;DHT22;6405;59.208;18.216;2022-11-20T07:33:32;0.60;99.90
12682;DHT22;6405;59.208;18.216;2022-11-20T07:35:59;0.60;99.90
12682;DHT22;6405;59.208;18.216;2022-11-20T07:38:26;0.70;99.90
12682;DHT22;6405;59.208;18.216;2022-11-20T07:40:56;0.70;99.90
12682;DHT22;6405;59.208;18.216;2022-11-20T07:43:25;0.70;99.90
12682;DHT22;6405;59.208;18.216;2022-11-20T07:45:51;0.70;99.90
12682;DHT22;6405;59.208;18.216;2022-11-20T07:48:19;0.70;99.90
12682;DHT22;6405;59.208;18.216;2022-11-20T07:50:45;0.70;99.90
12682;DHT22;6405;59.208;18.216;2022-11-20T07:53:13;0.80;99.90
12682;DHT22;6405;59.208;18.216;2022-11-20T07:55:40;0.80;99.90
12682;DHT22;6405;59.208;18.216;2022-11-20T07:58:08;0.80;99.90
12682;DHT22;6405;59.208;18.216;2022-11-20T08:00:34;0.80;99.90
12682;DHT22;6405;59.208;18.216;2022-11-20T08:03:05;0.80;99.90
12682;DHT22;6405;59.208;18.216;2022-11-20T08:05:32;0.80;99.90
12682;DHT22;6405;59.208;18.216;2022-11-20T08:07:58;0.80;99.90
12682;DHT22;6405;59.208;18.216;2022-11-20T08:10:25;0.90;99.90
12682;DHT22;6405;59.208;18.216;2022-11-20T08:12:53;0.90;99.90
12682;DHT22;6405;59.208;18.216;2022-11-20T08:15:39;0.90;99.90
12682;DHT22;6405;59.208;18.216;2022-11-20T08:18:08;0.90;99.90
12682;DHT22;6405;59.208;18.216;2022-11-20T08:20:35;0.90;99.90
12682;DHT22;6405;59.208;18.216;2022-11-20T08:23:02;1.10;99.90
12682;DHT22;6405;59.208;18.216;2022-11-20T08:25:29;1.00;99.90
12682;DHT22;6405;59.208;18.216;2022-11-20T08:27:58;1.00;99.90
12682;DHT22;6405;59.208;18.216;2022-11-20T08:30:24;1.00;99.90
12682;DHT22;6405;59.208;18.216;2022-11-20T08:32:51;1.00;99.90
12682;DHT22;6405;59.208;18.216;2022-11-20T08:35:16;1.10;99.90
12682;DHT22;6405;59.208;18.216;2022-11-20T08:37:46;1.00;99.90
12682;DHT22;6405;59.208;18.216;2022-11-20T08:40:14;1.10;99.90
12682;DHT22;6405;59.208;18.216;2022-11-20T08:42:50;1.00;99.90
12682;DHT22;6405;59.208;18.216;2022-11-20T08:45:20;1.00;99.90
12682;DHT22;6405;59.208;18.216;2022-11-20T08:47:46;1.00;99.90
12682;DHT22;6405;59.208;18.216;2022-11-20T08:50:14;1.00;99.90
12682;DHT22;6405;59.208;18.216;2022-11-20T08:52:41;1.10;99.90
12682;DHT22;6405;59.208;18.216;2022-11-20T08:55:10;1.10;99.90
12682;DHT22;6405;59.208;18.216;2022-11-20T08:57:37;1.20;99.90
12682;DHT22;6405;59.208;18.216;2022-11-20T09:00:07;1.20;99.90
12682;DHT22;6405;59.208;18.216;2022-11-20T09:02:33;1.30;99.90
12682;DHT22;6405;59.208;18.216;2022-11-20T09:05:01;1.40;99.90
12682;DHT22;6405;59.208;18.216;2022-11-20T09:07:30;1.40;99.90
12682;DHT22;6405;59.208;18.216;2022-11-20T09:09:56;1.40;99.90
12682;DHT22;6405;59.208;18.216;2022-11-20T09:12:24;1.40;99.90
12682;DHT22;6405;59.208;18.216;2022-11-20T09:14:51;1.40;99.90
12682;DHT22;6405;59.208;18.216;2022-11-20T09:17:17;1.30;99.90
12682;DHT22;6405;59.208;18.216;2022-11-20T09:19:45;1.30;99.90
12682;DHT22;6405;59.208;18.216;2022-11-20T09:22:12;1.30;99.90
12682;DHT22;6405;59.208;18.216;2022-11-20T09:24:38;1.30;99.90
12682;DHT22;6405;59.208;18.216;2022-11-20T09:27:05;1.40;99.90
12682;DHT22;6405;59.208;18.216;2022-11-20T09:29:32;1.40;99.90
12682;DHT22;6405;59.208;18.216;2022-11-20T09:32:01;1.50;99.90
12682;DHT22;6405;59.208;18.216;2022-11-20T09:34:29;1.40;99.90
12682;DHT22;6405;59.208;18.216;2022-11-20T09:36:56;1.40;99.90
12682;DHT22;6405;59.208;18.216;2022-11-20T09:39:22;1.40;99.90
12682;DHT22;6405;59.208;18.216;2022-11-20T09:53:26;1.50;99.90
12682;DHT22;6405;59.208;18.216;2022-11-20T09:55:58;1.50;99.90
12682;DHT22;6405;59.208;18.216;2022-11-20T09:58:35;1.60;99.90
12682;DHT22;6405;59.208;18.216;2022-11-20T10:01:12;1.60;99.90
12682;DHT22;6405;59.208;18.216;2022-11-20T10:06:47;1.60;99.90
12682;DHT22;6405;59.208;18.216;2022-11-20T10:18:19;1.50;99.90
12682;DHT22;6405;59.208;18.216;2022-11-20T10:21:02;1.40;99.90
12682;DHT22;6405;59.208;18.216;2022-11-20T10:29:14;1.40;99.90
12682;DHT22;6405;59.208;18.216;2022-11-20T10:32:01;1.40;99.90
12682;DHT22;6405;59.208;18.216;2022-11-20T10:37:15;1.40;99.90
12682;DHT22;6405;59.208;18.216;2022-11-20T10:42:37;1.30;99.90
12682;DHT22;6405;59.208;18.216;2022-11-20T10:47:44;1.30;99.90
12682;DHT22;6405;59.208;18.216;2022-11-20T10:50:14;1.30;99.90
12682;DHT22;6405;59.208;18.216;2022-11-20T10:52:56;1.30;99.90
12682;DHT22;6405;59.208;18.216;2022-11-20T10:55:46;1.40;99.90
12682;DHT22;6405;59.208;18.216;2022-11-20T10:58:26;1.30;99.90
12682;DHT22;6405;59.208;18.216;2022-11-20T11:01:18;1.30;99.90
12682;DHT22;6405;59.208;18.216;2022-11-20T11:03:46;1.30;99.90
12682;DHT22;6405;59.208;18.216;2022-11-20T11:06:36;1.20;99.90
12682;DHT22;6405;59.208;18.216;2022-11-20T11:09:17;1.20;99.90
12682;DHT22;6405;59.208;18.216;2022-11-20T11:11:45;1.20;99.90
12682;DHT22;6405;59.208;18.216;2022-11-20T11:14:14;1.20;99.90
12682;DHT22;6405;59.208;18.216;2022-11-20T11:16:50;1.10;99.90
12682;DHT22;6405;59.208;18.216;2022-11-20T11:19:17;1.20;99.90
12682;DHT22;6405;59.208;18.216;2022-11-20T11:21:56;1.30;99.90
12682;DHT22;6405;59.208;18.216;2022-11-20T11:24:27;1.20;99.90
12682;DHT22;6405;59.208;18.216;2022-11-20T11:27:04;1.20;99.90
12682;DHT22;6405;59.208;18.216;2022-11-20T11:29:36;1.30;99.90
12682;DHT22;6405;59.208;18.216;2022-11-20T11:32:12;1.20;99.90
12682;DHT22;6405;59.208;18.216;2022-11-20T11:34:39;1.10;99.90
12682;DHT22;6405;59.208;18.216;2022-11-20T11:37:13;1.20;99.90
12682;DHT22;6405;59.208;18.216;2022-11-20T11:39:46;1.10;99.90
12682;DHT22;6405;59.208;18.216;2022-11-20T11:42:17;1.10;99.90
12682;DHT22;6405;59.208;18.216;2022-11-20T11:44:46;1.10;99.90
12682;DHT22;6405;59.208;18.216;2022-11-20T11:47:36;1.10;99.90
12682;DHT22;6405;59.208;18.216;2022-11-20T12:00:54;1.00;99.90
12682;DHT22;6405;59.208;18.216;2022-11-20T12:03:31;0.90;99.90
12682;DHT22;6405;59.208;18.216;2022-11-20T12:06:14;0.80;99.90
12682;DHT22;6405;59.208;18.216;2022-11-20T12:08:44;0.80;99.90
12682;DHT22;6405;59.208;18.216;2022-11-20T12:11:24;0.80;99.90
12682;DHT22;6405;59.208;18.216;2022-11-20T12:13:58;0.80;99.90
12682;DHT22;6405;59.208;18.216;2022-11-20T12:16:32;0.80;99.90
12682;DHT22;6405;59.208;18.216;2022-11-20T12:19:01;0.70;99.90
12682;DHT22;6405;59.208;18.216;2022-11-20T12:21:31;0.80;99.90
12682;DHT22;6405;59.208;18.216;2022-11-20T12:53:10;0.70;99.90
12682;DHT22;6405;59.208;18.216;2022-11-20T13:01:47;0.60;99.90
12682;DHT22;6405;59.208;18.216;2022-11-20T13:07:12;0.60;99.90
12682;DHT22;6405;59.208;18.216;2022-11-20T13:09:43;0.60;99.90
12682;DHT22;6405;59.208;18.216;2022-11-20T13:12:11;0.60;99.90
12682;DHT22;6405;59.208;18.216;2022-11-20T13:17:21;0.50;99.90
12682;DHT22;6405;59.208;18.216;2022-11-20T13:19:55;0.60;99.90
12682;DHT22;6405;59.208;18.216;2022-11-20T13:22:29;0.50;99.90
12682;DHT22;6405;59.208;18.216;2022-11-20T13:25:10;0.40;99.90
12682;DHT22;6405;59.208;18.216;2022-11-20T13:27:47;0.40;99.90
12682;DHT22;6405;59.208;18.216;2022-11-20T13:30:18;0.50;99.90
12682;DHT22;6405;59.208;18.216;2022-11-20T13:33:39;0.40;99.90
12682;DHT22;6405;59.208;18.216;2022-11-20T13:38:44;0.40;99.90
12682;DHT22;6405;59.208;18.216;2022-11-20T13:41:30;0.40;99.90
12682;DHT22;6405;59.208;18.216;2022-11-20T13:44:12;0.30;99.90
12682;DHT22;6405;59.208;18.216;2022-11-20T13:46:41;0.30;99.90
12682;DHT22;6405;59.208;18.216;2022-11-20T13:49:25;0.30;99.90
12682;DHT22;6405;59.208;18.216;2022-11-20T13:52:04;0.20;99.90
12682;DHT22;6405;59.208;18.216;2022-11-20T14:00:15;0.20;99.90
12682;DHT22;6405;59.208;18.216;2022-11-20T14:02:43;0.20;99.90
12682;DHT22;6405;59.208;18.216;2022-11-20T14:05:21;0.20;99.90
12682;DHT22;6405;59.208;18.216;2022-11-20T14:07:49;0.10;99.90
12682;DHT22;6405;59.208;18.216;2022-11-20T14:10:29;0.20;99.90
12682;DHT22;6405;59.208;18.216;2022-11-20T14:12:57;0.10;99.90
12682;DHT22;6405;59.208;18.216;2022-11-20T14:15:32;0.10;99.90
12682;DHT22;6405;59.208;18.216;2022-11-20T14:17:59;0.10;99.90
12682;DHT22;6405;59.208;18.216;2022-11-20T14:20:29;0.00;99.90
12682;DHT22;6405;59.208;18.216;2022-11-20T14:23:00;0.00;99.90
12682;DHT22;6405;59.208;18.216;2022-11-20T14:25:26;0.00;99.90
12682;DHT22;6405;59.208;18.216;2022-11-20T14:27:58;0.00;99.90
12682;DHT22;6405;59.208;18.216;2022-11-20T14:30:29;0.10;99.90
12682;DHT22;6405;59.208;18.216;2022-11-20T14:33:03;0.00;99.90
12682;DHT22;6405;59.208;18.216;2022-11-20T14:35:34;0.00;99.90
12682;DHT22;6405;59.208;18.216;2022-11-20T14:38:01;0.00;99.90
12682;DHT22;6405;59.208;18.216;2022-11-20T14:40:34;0.00;99.90
12682;DHT22;6405;59.208;18.216;2022-11-20T14:45:48;-0.10;99.90
12682;DHT22;6405;59.208;18.216;2022-11-20T14:48:14;-0.10;99.90
12682;DHT22;6405;59.208;18.216;2022-11-20T14:50:40;-0.10;99.90
12682;DHT22;6405;59.208;18.216;2022-11-20T14:53:07;-0.10;99.90
12682;DHT22;6405;59.208;18.216;2022-11-20T14:55:36;-0.10;99.90
12682;DHT22;6405;59.208;18.216;2022-11-20T14:58:21;-0.10;99.90
12682;DHT22;6405;59.208;18.216;2022-11-20T15:01:01;-0.10;99.90
12682;DHT22;6405;59.208;18.216;2022-11-20T15:03:39;-0.10;99.90
12682;DHT22;6405;59.208;18.216;2022-11-20T15:06:07;0.00;99.90
12682;DHT22;6405;59.208;18.216;2022-11-20T15:08:37;-0.10;99.90
12682;DHT22;6405;59.208;18.216;2022-11-20T15:11:17;0.00;99.90
12682;DHT22;6405;59.208;18.216;2022-11-20T15:13:46;0.00;99.90
12682;DHT22;6405;59.208;18.216;2022-11-20T15:16:18;0.00;99.90
12682;DHT22;6405;59.208;18.216;2022-11-20T15:18:45;0.00;99.90
12682;DHT22;6405;59.208;18.216;2022-11-20T15:21:15;0.00;99.90
12682;DHT22;6405;59.208;18.216;2022-11-20T15:23:43;0.00;99.90
12682;DHT22;6405;59.208;18.216;2022-11-20T15:26:11;0.00;99.90
12682;DHT22;6405;59.208;18.216;2022-11-20T15:28:40;0.00;99.90
12682;DHT22;6405;59.208;18.216;2022-11-20T15:31:12;0.00;99.90
12682;DHT22;6405;59.208;18.216;2022-11-20T15:33:38;0.00;99.90
12682;DHT22;6405;59.208;18.216;2022-11-20T15:36:05;0.00;99.90
12682;DHT22;6405;59.208;18.216;2022-11-20T15:38:32;0.10;99.90
12682;DHT22;6405;59.208;18.216;2022-11-20T15:40:59;0.10;99.90
12682;DHT22;6405;59.208;18.216;2022-11-20T15:43:25;0.10;99.90
12682;DHT22;6405;59.208;18.216;2022-11-20T15:46:13;0.10;99.90
12682;DHT22;6405;59.208;18.216;2022-11-20T15:48:51;0.10;99.90
12682;DHT22;6405;59.208;18.216;2022-11-20T15:54:22;0.10;99.90
12682;DHT22;6405;59.208;18.216;2022-11-20T15:56:49;0.10;99.90
12682;DHT22;6405;59.208;18.216;2022-11-20T15:59:18;0.10;99.90
12682;DHT22;6405;59.208;18.216;2022-11-20T16:01:45;0.10;99.90
12682;DHT22;6405;59.208;18.216;2022-11-20T16:04:14;0.10;99.90
12682;DHT22;6405;59.208;18.216;2022-11-20T16:06:40;0.10;99.90
12682;DHT22;6405;59.208;18.216;2022-11-20T16:09:07;0.10;99.90
12682;DHT22;6405;59.208;18.216;2022-11-20T16:11:34;0.10;99.90
12682;DHT22;6405;59.208;18.216;2022-11-20T16:14:03;0.10;99.90
12682;DHT22;6405;59.208;18.216;2022-11-20T16:17:02;0.10;99.90
12682;DHT22;6405;59.208;18.216;2022-11-20T16:19:29;0.10;99.90
12682;DHT22;6405;59.208;18.216;2022-11-20T16:21:57;0.20;99.90
12682;DHT22;6405;59.208;18.216;2022-11-20T16:24:24;0.20;99.90
12682;DHT22;6405;59.208;18.216;2022-11-20T16:26:49;0.20;99.90
12682;DHT22;6405;59.208;18.216;2022-11-20T16:29:16;0.20;99.90
12682;DHT22;6405;59.208;18.216;2022-11-20T16:31:43;0.20;99.90
12682;DHT22;6405;59.208;18.216;2022-11-20T16:34:12;0.20;99.90
12682;DHT22;6405;59.208;18.216;2022-11-20T16:36:41;0.20;99.90
12682;DHT22;6405;59.208;18.216;2022-11-20T16:39:07;0.20;99.90
12682;DHT22;6405;59.208;18.216;2022-11-20T16:41:34;0.20;99.90
12682;DHT22;6405;59.208;18.216;2022-11-20T16:44:02;0.20;99.90
12682;DHT22;6405;59.208;18.216;2022-11-20T16:46:31;0.30;99.90
12682;DHT22;6405;59.208;18.216;2022-11-20T16:49:00;0.30;99.90
12682;DHT22;6405;59.208;18.216;2022-11-20T16:51:29;0.30;99.90
12682;DHT22;6405;59.208;18.216;2022-11-20T16:53:56;0.20;99.90
12682;DHT22;6405;59.208;18.216;2022-11-20T16:56:26;0.20;99.90
12682;DHT22;6405;59.208;18.216;2022-11-20T16:58:56;0.20;99.90
12682;DHT22;6405;59.208;18.216;2022-11-20T17:01:23;0.20;99.90
12682;DHT22;6405;59.208;18.216;2022-11-20T17:03:55;0.20;99.90
12682;DHT22;6405;59.208;18.216;2022-11-20T17:06:25;0.20;99.90
12682;DHT22;6405;59.208;18.216;2022-11-20T17:08:52;0.30;99.90
12682;DHT22;6405;59.208;18.216;2022-11-20T17:11:20;0.30;99.90
12682;DHT22;6405;59.208;18.216;2022-11-20T17:13:48;0.20;99.90
12682;DHT22;6405;59.208;18.216;2022-11-20T17:16:18;0.20;99.90
12682;DHT22;6405;59.208;18.216;2022-11-20T17:18:44;0.30;99.90
12682;DHT22;6405;59.208;18.216;2022-11-20T17:21:10;0.30;99.90
12682;DHT22;6405;59.208;18.216;2022-11-20T17:23:39;0.30;99.90
12682;DHT22;6405;59.208;18.216;2022-11-20T17:26:19;0.30;99.90
12682;DHT22;6405;59.208;18.216;2022-11-20T17:28:52;0.30;99.90
12682;DHT22;6405;59.208;18.216;2022-11-20T17:31:18;0.30;99.90
12682;DHT22;6405;59.208;18.216;2022-11-20T17:33:46;0.30;99.90
12682;DHT22;6405;59.208;18.216;2022-11-20T17:36:14;0.30;99.90
12682;DHT22;6405;59.208;18.216;2022-11-20T17:38:41;0.30;99.90
12682;DHT22;6405;59.208;18.216;2022-11-20T17:41:20;0.30;99.90
12682;DHT22;6405;59.208;18.216;2022-11-20T17:43:47;0.30;99.90
12682;DHT22;6405;59.208;18.216;2022-11-20T17:46:16;0.30;99.90
12682;DHT22;6405;59.208;18.216;2022-11-20T17:48:44;0.30;99.90